createdAt,value
2019-01-08T00:00:34.642Z,1007.14
2019-01-08T00:01:34.632Z,1007.12
2019-01-08T00:02:34.628Z,1007.05
2019-01-08T00:03:34.609Z,1007.05
2019-01-08T00:04:34.598Z,1006.97
2019-01-08T00:05:34.631Z,1006.96
2019-01-08T00:06:34.577Z,1006.87
2019-01-08T00:07:34.595Z,1006.85
2019-01-08T00:08:34.552Z,1006.82
2019-01-08T00:09:34.543Z,1006.86
2019-01-08T00:10:34.532Z,1006.85
2019-01-08T00:11:34.521Z,1006.78
2019-01-08T00:12:34.520Z,1006.80
2019-01-08T00:13:34.517Z,1006.80
2019-01-08T00:14:34.487Z,1006.75
2019-01-08T00:15:34.477Z,1006.75
2019-01-08T00:16:34.470Z,1006.74
2019-01-08T00:17:34.462Z,1006.70
2019-01-08T00:18:34.460Z,1006.67
2019-01-08T00:19:34.433Z,1006.54
2019-01-08T00:20:34.421Z,1006.53
2019-01-08T00:21:34.410Z,1006.54
2019-01-08T00:22:34.403Z,1006.49
2019-01-08T00:23:34.407Z,1006.53
2019-01-08T00:24:34.378Z,1006.49
2019-01-08T00:25:34.367Z,1006.48
2019-01-08T00:26:34.360Z,1006.39
2019-01-08T00:27:34.351Z,1006.33
2019-01-08T00:28:34.345Z,1006.30
2019-01-08T00:29:34.334Z,1006.29
2019-01-08T00:30:34.313Z,1006.29
2019-01-08T00:31:34.304Z,1006.28
2019-01-08T00:32:34.289Z,1006.21
2019-01-08T00:33:34.294Z,1006.23
2019-01-08T00:34:34.270Z,1006.15
2019-01-08T00:35:34.258Z,1006.12
2019-01-08T00:36:34.246Z,1006.12
2019-01-08T00:37:34.239Z,1006.12
2019-01-08T00:38:34.239Z,1006.12
2019-01-08T00:39:34.216Z,1006.14
2019-01-08T00:40:34.205Z,1006.09
2019-01-08T00:41:34.192Z,1006.09
2019-01-08T00:42:34.182Z,1006.04
2019-01-08T00:43:34.181Z,1005.95
2019-01-08T00:44:34.160Z,1005.91
2019-01-08T00:45:34.153Z,1005.92
2019-01-08T00:46:34.144Z,1005.91
2019-01-08T00:47:34.179Z,1005.85
2019-01-08T00:48:34.129Z,1005.84
2019-01-08T00:49:34.106Z,1005.84
2019-01-08T00:50:34.094Z,1005.78
2019-01-08T00:51:34.084Z,1005.72
2019-01-08T00:52:34.076Z,1005.72
2019-01-08T00:53:34.073Z,1005.68
2019-01-08T00:54:34.050Z,1005.66
2019-01-08T00:55:34.041Z,1005.61
2019-01-08T00:56:34.029Z,1005.59
2019-01-08T00:57:34.018Z,1005.68
2019-01-08T00:58:34.022Z,1005.67
2019-01-08T00:59:33.999Z,1005.65
2019-01-08T01:00:33.992Z,1005.62
2019-01-08T01:01:33.974Z,1005.58
2019-01-08T01:02:33.984Z,1005.52
2019-01-08T01:03:33.965Z,1005.51
2019-01-08T01:04:33.940Z,1005.56
2019-01-08T01:05:33.931Z,1005.49
2019-01-08T01:06:33.936Z,1005.47
2019-01-08T01:07:33.914Z,1005.46
2019-01-08T01:08:33.898Z,1005.39
2019-01-08T01:09:33.911Z,1005.43
2019-01-08T01:10:33.879Z,1005.36
2019-01-08T01:11:33.865Z,1005.29
2019-01-08T01:12:33.853Z,1005.20
2019-01-08T01:13:33.844Z,1005.24
2019-01-08T01:14:33.847Z,1005.21
2019-01-08T01:15:33.822Z,1005.17
2019-01-08T01:16:33.812Z,1005.16
2019-01-08T01:17:33.799Z,1005.18
2019-01-08T01:18:33.788Z,1005.12
2019-01-08T01:19:33.795Z,1005.09
2019-01-08T01:20:33.773Z,1005.08
2019-01-08T01:21:33.760Z,1004.97
2019-01-08T01:22:33.744Z,1004.99
2019-01-08T01:23:33.804Z,1004.95
2019-01-08T01:24:33.735Z,1004.91
2019-01-08T01:25:33.715Z,1004.92
2019-01-08T01:26:33.701Z,1004.91
2019-01-08T01:27:33.690Z,1004.90
2019-01-08T01:28:33.678Z,1004.89
2019-01-08T01:29:33.697Z,1004.80
2019-01-08T01:30:33.657Z,1004.86
2019-01-08T01:31:33.664Z,1004.81
2019-01-08T01:32:33.637Z,1004.82
2019-01-08T01:33:33.624Z,1004.74
2019-01-08T01:34:33.613Z,1004.71
2019-01-08T01:35:33.614Z,1004.79
2019-01-08T01:36:33.594Z,1004.67
2019-01-08T01:37:33.591Z,1004.69
2019-01-08T01:38:33.568Z,1004.72
2019-01-08T01:39:33.560Z,1004.62
2019-01-08T01:40:33.562Z,1004.59
2019-01-08T01:41:33.538Z,1004.53
2019-01-08T01:42:33.528Z,1004.49
2019-01-08T01:43:33.516Z,1004.52
2019-01-08T01:44:33.504Z,1004.49
2019-01-08T01:45:33.505Z,1004.41
2019-01-08T01:46:33.485Z,1004.37
2019-01-08T01:47:33.473Z,1004.35
2019-01-08T01:48:33.468Z,1004.31
2019-01-08T01:49:33.452Z,1004.31
2019-01-08T01:50:33.450Z,1004.26
2019-01-08T01:51:33.433Z,1004.23
2019-01-08T01:52:33.420Z,1004.21
2019-01-08T01:53:33.405Z,1004.20
2019-01-08T01:54:33.398Z,1004.19
2019-01-08T01:55:33.400Z,1004.13
2019-01-08T01:56:33.374Z,1004.12
2019-01-08T01:57:33.363Z,1004.14
2019-01-08T01:58:33.350Z,1004.18
2019-01-08T01:59:33.342Z,1004.13
2019-01-08T02:00:33.345Z,1004.08
2019-01-08T02:01:33.317Z,1004.12
2019-01-08T02:02:33.308Z,1004.06
2019-01-08T02:03:33.517Z,1004.02
2019-01-08T02:04:33.293Z,1003.99
2019-01-08T02:05:33.288Z,1003.91
2019-01-08T02:06:33.288Z,1003.93
2019-01-08T02:07:33.256Z,1003.90
2019-01-08T02:08:33.241Z,1003.88
2019-01-08T02:09:33.234Z,1003.88
2019-01-08T02:10:33.251Z,1003.92
2019-01-08T02:11:33.213Z,1003.92
2019-01-08T02:12:33.199Z,1003.84
2019-01-08T02:13:33.186Z,1003.88
2019-01-08T02:14:33.177Z,1003.78
2019-01-08T02:15:33.166Z,1003.79
2019-01-08T02:16:33.183Z,1003.77
2019-01-08T02:17:33.150Z,1003.73
2019-01-08T02:18:33.135Z,1003.71
2019-01-08T02:19:33.122Z,1003.62
2019-01-08T02:20:33.111Z,1003.59
2019-01-08T02:21:33.118Z,1003.56
2019-01-08T02:22:33.159Z,1003.53
2019-01-08T02:23:33.078Z,1003.53
2019-01-08T02:24:33.067Z,1003.49
2019-01-08T02:25:33.059Z,1003.64
2019-01-08T02:26:33.063Z,1003.67
2019-01-08T02:27:33.033Z,1003.73
2019-01-08T02:28:33.023Z,1003.66
2019-01-08T02:29:33.012Z,1003.62
2019-01-08T02:30:33.002Z,1003.56
2019-01-08T02:31:33.004Z,1003.50
2019-01-08T02:32:32.978Z,1003.46
2019-01-08T02:33:32.966Z,1003.47
2019-01-08T02:34:32.955Z,1003.48
2019-01-08T02:35:32.949Z,1003.53
2019-01-08T02:36:32.948Z,1003.37
2019-01-08T02:37:33.045Z,1003.31
2019-01-08T02:38:33.020Z,1003.32
2019-01-08T02:39:32.985Z,1003.27
2019-01-08T02:40:32.896Z,1003.26
2019-01-08T02:41:33.103Z,1003.28
2019-01-08T02:42:32.868Z,1003.27
2019-01-08T02:43:32.863Z,1003.19
2019-01-08T02:44:32.987Z,1003.19
2019-01-08T02:45:32.847Z,1003.24
2019-01-08T02:46:32.868Z,1003.18
2019-01-08T02:47:32.828Z,1003.18
2019-01-08T02:48:32.805Z,1003.17
2019-01-08T02:49:32.795Z,1003.12
2019-01-08T02:50:32.784Z,1003.13
2019-01-08T02:51:32.776Z,1003.07
2019-01-08T02:52:32.778Z,1003.07
2019-01-08T02:53:32.749Z,1002.97
2019-01-08T02:54:32.749Z,1002.98
2019-01-08T02:55:32.727Z,1002.95
2019-01-08T02:56:32.719Z,1002.98
2019-01-08T02:57:32.722Z,1003.00
2019-01-08T02:58:32.693Z,1002.97
2019-01-08T02:59:32.683Z,1002.91
2019-01-08T03:00:32.671Z,1002.90
2019-01-08T03:01:32.662Z,1002.78
2019-01-08T03:02:32.742Z,1002.82
2019-01-08T03:03:32.641Z,1002.83
2019-01-08T03:04:32.634Z,1002.73
2019-01-08T03:05:32.618Z,1002.77
2019-01-08T03:06:32.610Z,1002.70
2019-01-08T03:07:32.680Z,1002.64
2019-01-08T03:08:32.585Z,1002.64
2019-01-08T03:09:32.574Z,1002.61
2019-01-08T03:10:32.563Z,1002.48
2019-01-08T03:11:32.552Z,1002.53
2019-01-08T03:12:32.553Z,1002.58
2019-01-08T03:13:32.530Z,1002.58
2019-01-08T03:14:32.520Z,1002.44
2019-01-08T03:15:32.509Z,1002.40
2019-01-08T03:16:32.500Z,1002.48
2019-01-08T03:17:32.527Z,1002.47
2019-01-08T03:18:32.478Z,1002.46
2019-01-08T03:19:32.465Z,1002.41
2019-01-08T03:20:32.455Z,1002.38
2019-01-08T03:21:32.442Z,1002.37
2019-01-08T03:22:32.431Z,1002.32
2019-01-08T03:23:32.434Z,1002.36
2019-01-08T03:24:32.413Z,1002.32
2019-01-08T03:25:32.398Z,1002.23
2019-01-08T03:26:32.395Z,1002.17
2019-01-08T03:27:32.378Z,1002.16
2019-01-08T03:28:32.376Z,1002.09
2019-01-08T03:29:33.613Z,1002.10
2019-01-08T03:30:32.351Z,1002.05
2019-01-08T03:31:32.344Z,1002.08
2019-01-08T03:32:32.370Z,1001.99
2019-01-08T03:33:32.323Z,1002.03
2019-01-08T03:34:32.308Z,1002.02
2019-01-08T03:35:32.289Z,1002.01
2019-01-08T03:36:32.290Z,1002.04
2019-01-08T03:37:32.276Z,1002.01
2019-01-08T03:38:32.269Z,1002.01
2019-01-08T03:39:32.248Z,1001.96
2019-01-08T03:40:32.236Z,1001.93
2019-01-08T03:41:32.228Z,1001.97
2019-01-08T03:42:32.231Z,1001.95
2019-01-08T03:43:32.215Z,1001.90
2019-01-08T03:44:32.193Z,1001.88
2019-01-08T03:45:32.181Z,1001.81
2019-01-08T03:46:32.190Z,1001.78
2019-01-08T03:47:32.160Z,1001.80
2019-01-08T03:48:32.165Z,1001.76
2019-01-08T03:49:32.144Z,1001.77
2019-01-08T03:50:32.127Z,1001.71
2019-01-08T03:51:32.117Z,1001.78
2019-01-08T03:52:32.105Z,1001.68
2019-01-08T03:53:33.250Z,1001.64
2019-01-08T03:54:32.090Z,1001.69
2019-01-08T03:55:32.073Z,1001.66
2019-01-08T03:56:32.064Z,1001.62
2019-01-08T03:57:32.054Z,1001.63
2019-01-08T03:58:32.083Z,1001.58
2019-01-08T03:59:32.029Z,1001.55
2019-01-08T04:00:32.019Z,1001.53
2019-01-08T04:01:32.007Z,1001.48
2019-01-08T04:02:31.995Z,1001.48
2019-01-08T04:03:31.988Z,1001.41
2019-01-08T04:04:31.983Z,1001.43
2019-01-08T04:05:31.966Z,1001.41
2019-01-08T04:06:31.955Z,1001.36
2019-01-08T04:07:31.946Z,1001.38
2019-01-08T04:08:31.930Z,1001.38
2019-01-08T04:09:31.932Z,1001.28
2019-01-08T04:10:31.908Z,1001.30
2019-01-08T04:11:31.901Z,1001.33
2019-01-08T04:12:31.889Z,1001.27
2019-01-08T04:13:31.875Z,1001.27
2019-01-08T04:14:31.877Z,1001.21
2019-01-08T04:15:31.860Z,1001.19
2019-01-08T04:16:31.851Z,1001.14
2019-01-08T04:17:31.832Z,1001.15
2019-01-08T04:18:31.823Z,1001.10
2019-01-08T04:19:31.819Z,1001.07
2019-01-08T04:20:31.802Z,1001.02
2019-01-08T04:21:31.788Z,1001.00
2019-01-08T04:22:31.785Z,1000.99
2019-01-08T04:23:31.779Z,1000.98
2019-01-08T04:24:31.767Z,1000.97
2019-01-08T04:25:31.746Z,1001.01
2019-01-08T04:26:31.740Z,1001.01
2019-01-08T04:27:31.818Z,1001.05
2019-01-08T04:28:31.716Z,1001.06
2019-01-08T04:29:31.710Z,1001.02
2019-01-08T04:30:31.691Z,1001.05
2019-01-08T04:31:31.689Z,1001.00
2019-01-08T04:32:31.667Z,1001.04
2019-01-08T04:33:31.657Z,1000.99
2019-01-08T04:34:31.659Z,1000.91
2019-01-08T04:35:31.644Z,1000.89
2019-01-08T04:36:31.628Z,1000.81
2019-01-08T04:37:31.612Z,1000.82
2019-01-08T04:38:31.606Z,1000.82
2019-01-08T04:39:31.797Z,1000.78
2019-01-08T04:40:31.582Z,1000.76
2019-01-08T04:41:31.575Z,1000.70
2019-01-08T04:42:31.563Z,1000.68
2019-01-08T04:43:31.551Z,1000.67
2019-01-08T04:44:31.539Z,1000.63
2019-01-08T04:45:31.538Z,1000.63
2019-01-08T04:46:31.541Z,1000.55
2019-01-08T04:47:31.517Z,1000.55
2019-01-08T04:48:31.497Z,1000.50
2019-01-08T04:49:31.487Z,1000.46
2019-01-08T04:50:31.488Z,1000.48
2019-01-08T04:51:31.468Z,1000.44
2019-01-08T04:52:31.459Z,1000.37
2019-01-08T04:53:31.441Z,1000.39
2019-01-08T04:54:31.436Z,1000.25
2019-01-08T04:55:31.445Z,1000.25
2019-01-08T04:56:31.411Z,1000.18
2019-01-08T04:57:31.418Z,1000.12
2019-01-08T04:58:31.396Z,1000.16
2019-01-08T04:59:31.388Z,1000.10
2019-01-08T05:00:31.380Z,1000.05
2019-01-08T05:01:31.365Z,1000.06
2019-01-08T05:02:31.352Z,1000.03
2019-01-08T05:03:31.349Z,1000.04
2019-01-08T05:04:31.328Z,999.99
2019-01-08T05:05:31.326Z,999.97
2019-01-08T05:06:31.306Z,999.99
2019-01-08T05:07:31.297Z,999.81
2019-01-08T05:08:31.282Z,999.77
2019-01-08T05:09:31.275Z,999.71
2019-01-08T05:10:31.318Z,999.72
2019-01-08T05:11:31.252Z,999.61
2019-01-08T05:12:31.243Z,999.63
2019-01-08T05:13:31.228Z,999.62
2019-01-08T05:14:31.237Z,999.59
2019-01-08T05:15:31.232Z,999.58
2019-01-08T05:16:31.201Z,999.57
2019-01-08T05:17:31.195Z,999.55
2019-01-08T05:18:31.187Z,999.58
2019-01-08T05:19:31.164Z,999.57
2019-01-08T05:20:31.196Z,999.50
2019-01-08T05:21:31.144Z,999.48
2019-01-08T05:22:31.138Z,999.44
2019-01-08T05:23:31.128Z,999.47
2019-01-08T05:24:31.117Z,999.53
2019-01-08T05:25:31.112Z,999.50
2019-01-08T05:26:31.096Z,999.48
2019-01-08T05:27:31.091Z,999.50
2019-01-08T05:28:31.069Z,999.52
2019-01-08T05:29:31.060Z,999.48
2019-01-08T05:30:31.068Z,999.49
2019-01-08T05:31:31.049Z,999.45
2019-01-08T05:32:31.028Z,999.45
2019-01-08T05:33:31.017Z,999.43
2019-01-08T05:34:31.023Z,999.46
2019-01-08T05:35:30.998Z,999.41
2019-01-08T05:36:30.999Z,999.41
2019-01-08T05:37:30.974Z,999.35
2019-01-08T05:38:30.965Z,999.37
2019-01-08T05:39:30.954Z,999.31
2019-01-08T05:40:30.941Z,999.34
2019-01-08T05:41:30.947Z,999.24
2019-01-08T05:42:30.934Z,999.26
2019-01-08T05:43:30.924Z,999.26
2019-01-08T05:44:30.902Z,999.16
2019-01-08T05:45:30.899Z,999.13
2019-01-08T05:46:30.890Z,999.11
2019-01-08T05:47:30.873Z,999.06
2019-01-08T05:48:30.858Z,999.00
2019-01-08T05:49:30.851Z,999.02
2019-01-08T05:50:30.841Z,999.03
2019-01-08T05:51:30.834Z,999.02
2019-01-08T05:52:31.044Z,998.99
2019-01-08T05:53:30.811Z,998.98
2019-01-08T05:54:30.795Z,998.96
2019-01-08T05:55:30.788Z,998.97
2019-01-08T05:56:30.780Z,998.94
2019-01-08T05:57:30.763Z,998.94
2019-01-08T05:58:30.752Z,998.95
2019-01-08T05:59:30.739Z,998.94
2019-01-08T06:00:30.733Z,998.93
2019-01-08T06:01:30.735Z,998.96
2019-01-08T06:02:30.710Z,998.78
2019-01-08T06:03:30.695Z,998.80
2019-01-08T06:04:30.687Z,998.72
2019-01-08T06:05:30.675Z,998.79
2019-01-08T06:06:30.678Z,998.75
2019-01-08T06:07:30.657Z,998.74
2019-01-08T06:08:30.645Z,998.67
2019-01-08T06:09:30.637Z,998.65
2019-01-08T06:10:30.626Z,998.64
2019-01-08T06:11:30.623Z,998.56
2019-01-08T06:12:30.609Z,998.67
2019-01-08T06:13:30.593Z,998.65
2019-01-08T06:14:30.579Z,998.71
2019-01-08T06:15:30.569Z,998.59
2019-01-08T06:16:30.570Z,998.63
2019-01-08T06:17:30.548Z,998.60
2019-01-08T06:18:30.533Z,998.63
2019-01-08T06:19:30.527Z,998.57
2019-01-08T06:20:30.517Z,998.56
2019-01-08T06:21:30.516Z,998.55
2019-01-08T06:22:30.495Z,998.54
2019-01-08T06:23:30.481Z,998.56
2019-01-08T06:24:30.475Z,998.53
2019-01-08T06:25:30.480Z,998.53
2019-01-08T06:26:30.457Z,998.52
2019-01-08T06:27:30.444Z,998.40
2019-01-08T06:28:30.426Z,998.43
2019-01-08T06:29:30.421Z,998.41
2019-01-08T06:30:30.401Z,998.35
2019-01-08T06:31:30.404Z,998.36
2019-01-08T06:32:30.380Z,998.26
2019-01-08T06:33:30.372Z,998.20
2019-01-08T06:34:30.364Z,998.21
2019-01-08T06:35:30.362Z,998.16
2019-01-08T06:36:30.359Z,998.17
2019-01-08T06:37:30.325Z,998.14
2019-01-08T06:38:30.354Z,998.08
2019-01-08T06:39:30.306Z,998.08
2019-01-08T06:40:30.292Z,998.05
2019-01-08T06:41:30.298Z,998.00
2019-01-08T06:42:30.272Z,998.07
2019-01-08T06:43:30.261Z,997.99
2019-01-08T06:44:30.249Z,997.99
2019-01-08T06:45:30.238Z,998.02
2019-01-08T06:46:30.262Z,998.01
2019-01-08T06:47:30.373Z,998.02
2019-01-08T06:48:30.206Z,997.94
2019-01-08T06:49:30.196Z,997.84
2019-01-08T06:50:30.188Z,997.83
2019-01-08T06:51:30.193Z,997.80
2019-01-08T06:52:30.175Z,997.71
2019-01-08T06:53:30.154Z,997.75
2019-01-08T06:54:30.141Z,997.75
2019-01-08T06:55:30.133Z,997.72
2019-01-08T06:56:30.125Z,997.72
2019-01-08T06:57:30.128Z,997.66
2019-01-08T06:58:30.095Z,997.63
2019-01-08T06:59:30.088Z,997.60
2019-01-08T07:00:33.511Z,997.58
2019-01-08T07:01:30.068Z,997.60
2019-01-08T07:02:30.076Z,997.67
2019-01-08T07:03:30.065Z,997.65
2019-01-08T07:04:30.035Z,997.61
2019-01-08T07:05:30.020Z,997.56
2019-01-08T07:06:30.010Z,997.62
2019-01-08T07:07:30.029Z,997.61
2019-01-08T07:08:29.988Z,997.54
2019-01-08T07:09:29.979Z,997.49
2019-01-08T07:10:29.963Z,997.45
2019-01-08T07:11:29.954Z,997.39
2019-01-08T07:12:29.953Z,997.38
2019-01-08T07:13:29.933Z,997.27
2019-01-08T07:14:29.935Z,997.26
2019-01-08T07:15:29.910Z,997.22
2019-01-08T07:16:29.902Z,997.17
2019-01-08T07:17:29.936Z,997.26
2019-01-08T07:18:29.880Z,997.26
2019-01-08T07:19:29.869Z,997.24
2019-01-08T07:20:29.858Z,997.18
2019-01-08T07:21:29.850Z,997.21
2019-01-08T07:22:29.851Z,997.23
2019-01-08T07:23:29.826Z,997.16
2019-01-08T07:24:29.821Z,997.08
2019-01-08T07:25:29.807Z,997.15
2019-01-08T07:26:29.803Z,997.14
2019-01-08T07:27:29.809Z,997.01
2019-01-08T07:28:29.773Z,997.06
2019-01-08T07:29:29.763Z,997.00
2019-01-08T07:30:29.797Z,996.98
2019-01-08T07:31:29.740Z,996.98
2019-01-08T07:32:29.739Z,997.01
2019-01-08T07:33:29.722Z,996.91
2019-01-08T07:34:29.729Z,996.91
2019-01-08T07:35:29.723Z,996.95
2019-01-08T07:36:29.708Z,996.97
2019-01-08T07:37:30.526Z,996.82
2019-01-08T07:38:29.659Z,996.90
2019-01-08T07:39:29.652Z,996.83
2019-01-08T07:40:29.652Z,996.78
2019-01-08T07:41:29.654Z,996.79
2019-01-08T07:42:29.641Z,996.73
2019-01-08T07:43:29.673Z,996.65
2019-01-08T07:44:29.596Z,996.67
2019-01-08T07:45:29.634Z,996.68
2019-01-08T07:46:29.579Z,996.54
2019-01-08T07:47:29.592Z,996.54
2019-01-08T07:48:29.554Z,996.47
2019-01-08T07:49:29.555Z,996.48
2019-01-08T07:50:29.533Z,996.47
2019-01-08T07:51:29.531Z,996.44
2019-01-08T07:52:29.519Z,996.35
2019-01-08T07:53:29.500Z,996.44
2019-01-08T07:54:29.491Z,996.36
2019-01-08T07:55:29.500Z,996.34
2019-01-08T07:56:29.474Z,996.33
2019-01-08T07:57:29.467Z,996.30
2019-01-08T07:58:29.449Z,996.24
2019-01-08T07:59:29.433Z,996.26
2019-01-08T08:00:29.422Z,996.24
2019-01-08T08:01:29.427Z,996.15
2019-01-08T08:02:29.443Z,996.23
2019-01-08T08:03:29.391Z,996.11
2019-01-08T08:04:29.401Z,996.14
2019-01-08T08:05:29.369Z,996.20
2019-01-08T08:06:29.355Z,996.18
2019-01-08T08:07:29.344Z,996.16
2019-01-08T08:08:29.348Z,996.05
2019-01-08T08:09:29.320Z,996.08
2019-01-08T08:10:29.320Z,996.10
2019-01-08T08:11:29.301Z,996.01
2019-01-08T08:12:29.295Z,995.97
2019-01-08T08:13:29.292Z,995.98
2019-01-08T08:14:29.268Z,996.04
2019-01-08T08:15:29.257Z,995.90
2019-01-08T08:16:29.245Z,995.91
2019-01-08T08:17:29.236Z,995.94
2019-01-08T08:18:29.239Z,995.90
2019-01-08T08:19:29.215Z,995.93
2019-01-08T08:20:29.222Z,995.86
2019-01-08T08:21:29.192Z,995.84
2019-01-08T08:22:29.181Z,995.77
2019-01-08T08:23:29.180Z,995.83
2019-01-08T08:24:29.159Z,995.88
2019-01-08T08:25:29.167Z,995.89
2019-01-08T08:26:29.169Z,995.79
2019-01-08T08:27:29.125Z,995.85
2019-01-08T08:28:29.132Z,995.76
2019-01-08T08:29:29.107Z,995.75
2019-01-08T08:30:29.106Z,995.73
2019-01-08T08:31:29.100Z,995.74
2019-01-08T08:32:30.010Z,995.68
2019-01-08T08:33:29.089Z,995.66
2019-01-08T08:34:29.052Z,995.74
2019-01-08T08:35:29.037Z,995.67
2019-01-08T08:36:29.050Z,995.65
2019-01-08T08:37:29.043Z,995.61
2019-01-08T08:38:29.064Z,995.61
2019-01-08T08:39:28.998Z,995.59
2019-01-08T08:40:28.985Z,995.55
2019-01-08T08:41:28.998Z,995.50
2019-01-08T08:42:28.960Z,995.52
2019-01-08T08:43:28.962Z,995.41
2019-01-08T08:44:28.941Z,995.34
2019-01-08T08:45:28.927Z,995.40
2019-01-08T08:46:28.922Z,995.37
2019-01-08T08:47:28.910Z,995.36
2019-01-08T08:48:28.904Z,995.31
2019-01-08T08:49:28.884Z,995.32
2019-01-08T08:50:28.875Z,995.30
2019-01-08T08:51:28.865Z,995.26
2019-01-08T08:52:28.862Z,995.16
2019-01-08T08:53:28.850Z,995.12
2019-01-08T08:54:28.837Z,995.15
2019-01-08T08:55:28.818Z,995.15
2019-01-08T08:56:28.808Z,995.12
2019-01-08T08:57:28.825Z,995.05
2019-01-08T08:58:28.797Z,995.03
2019-01-08T08:59:28.822Z,995.03
2019-01-08T09:00:28.762Z,995.05
2019-01-08T09:01:28.757Z,994.99
2019-01-08T09:02:28.744Z,994.93
2019-01-08T09:03:28.746Z,994.94
2019-01-08T09:04:28.720Z,994.89
2019-01-08T09:05:28.711Z,994.90
2019-01-08T09:06:28.700Z,994.85
2019-01-08T09:07:28.719Z,994.86
2019-01-08T09:08:28.689Z,994.79
2019-01-08T09:09:28.676Z,994.76
2019-01-08T09:10:28.656Z,994.67
2019-01-08T09:11:28.652Z,994.71
2019-01-08T09:12:28.648Z,994.74
2019-01-08T09:13:28.669Z,994.70
2019-01-08T09:14:28.622Z,994.65
2019-01-08T09:15:28.611Z,994.64
2019-01-08T09:16:28.587Z,994.58
2019-01-08T09:17:28.584Z,994.68
2019-01-08T09:18:28.578Z,994.56
2019-01-08T09:19:28.557Z,994.66
2019-01-08T09:20:28.546Z,994.59
2019-01-08T09:21:28.534Z,994.65
2019-01-08T09:22:28.523Z,994.53
2019-01-08T09:23:28.528Z,994.43
2019-01-08T09:24:28.501Z,994.51
2019-01-08T09:25:28.489Z,994.55
2019-01-08T09:26:28.493Z,994.42
2019-01-08T09:27:28.469Z,994.46
2019-01-08T09:28:28.496Z,994.42
2019-01-08T09:29:28.451Z,994.45
2019-01-08T09:30:28.442Z,994.40
2019-01-08T09:31:28.428Z,994.35
2019-01-08T09:32:28.424Z,994.36
2019-01-08T09:33:28.405Z,994.30
2019-01-08T09:34:28.404Z,994.37
2019-01-08T09:35:28.387Z,994.15
2019-01-08T09:36:28.370Z,994.15
2019-01-08T09:37:28.358Z,994.14
2019-01-08T09:38:28.352Z,994.14
2019-01-08T09:39:28.349Z,994.11
2019-01-08T09:40:28.332Z,994.12
2019-01-08T09:41:28.316Z,994.11
2019-01-08T09:42:28.309Z,994.06
2019-01-08T09:43:28.302Z,994.08
2019-01-08T09:44:28.302Z,994.06
2019-01-08T09:45:28.274Z,993.99
2019-01-08T09:46:28.268Z,994.00
2019-01-08T09:47:28.278Z,993.97
2019-01-08T09:48:28.243Z,993.86
2019-01-08T09:49:28.244Z,993.77
2019-01-08T09:50:28.223Z,993.97
2019-01-08T09:51:28.214Z,993.86
2019-01-08T09:52:28.211Z,993.94
2019-01-08T09:53:28.187Z,993.82
2019-01-08T09:54:28.202Z,993.90
2019-01-08T09:55:28.164Z,993.88
2019-01-08T09:56:28.160Z,993.68
2019-01-08T09:57:28.146Z,993.85
2019-01-08T09:58:28.137Z,993.85
2019-01-08T09:59:28.137Z,993.84
2019-01-08T10:00:28.113Z,993.85
2019-01-08T10:01:28.102Z,993.79
2019-01-08T10:02:28.088Z,993.56
2019-01-08T10:03:28.085Z,993.67
2019-01-08T10:04:28.081Z,993.69
2019-01-08T10:05:28.060Z,993.57
2019-01-08T10:06:28.046Z,993.57
2019-01-08T10:07:28.034Z,993.53
2019-01-08T10:08:28.023Z,993.56
2019-01-08T10:09:28.026Z,993.50
2019-01-08T10:10:28.009Z,993.46
2019-01-08T10:11:27.992Z,993.46
2019-01-08T10:12:27.989Z,993.50
2019-01-08T10:13:27.970Z,993.50
2019-01-08T10:14:27.970Z,993.41
2019-01-08T10:15:27.947Z,993.36
2019-01-08T10:16:27.941Z,993.38
2019-01-08T10:17:27.927Z,993.36
2019-01-08T10:18:27.920Z,993.42
2019-01-08T10:19:27.913Z,993.32
2019-01-08T10:20:27.891Z,993.37
2019-01-08T10:21:27.880Z,993.27
2019-01-08T10:22:27.873Z,993.23
2019-01-08T10:23:27.868Z,993.25
2019-01-08T10:24:27.857Z,993.21
2019-01-08T10:25:27.838Z,993.26
2019-01-08T10:26:27.829Z,993.06
2019-01-08T10:27:27.815Z,993.10
2019-01-08T10:28:27.805Z,993.08
2019-01-08T10:29:27.808Z,992.98
2019-01-08T10:30:27.783Z,993.10
2019-01-08T10:31:32.461Z,992.96
2019-01-08T10:32:28.775Z,993.09
2019-01-08T10:33:27.758Z,993.02
2019-01-08T10:34:27.776Z,992.94
2019-01-08T10:35:27.727Z,992.83
2019-01-08T10:36:27.754Z,992.87
2019-01-08T10:37:27.703Z,992.95
2019-01-08T10:38:27.693Z,992.97
2019-01-08T10:39:27.715Z,992.85
2019-01-08T10:40:27.675Z,992.78
2019-01-08T10:41:27.665Z,992.74
2019-01-08T10:42:27.722Z,992.83
2019-01-08T10:43:27.657Z,992.78
2019-01-08T10:44:27.632Z,992.76
2019-01-08T10:45:27.630Z,992.70
2019-01-08T10:46:27.608Z,992.87
2019-01-08T10:47:27.603Z,992.76
2019-01-08T10:48:27.586Z,992.75
2019-01-08T10:49:27.573Z,992.70
2019-01-08T10:50:27.574Z,992.71
2019-01-08T10:51:27.567Z,992.71
2019-01-08T10:52:27.558Z,992.57
2019-01-08T10:53:27.532Z,992.65
2019-01-08T10:54:27.522Z,992.55
2019-01-08T10:55:27.525Z,992.64
2019-01-08T10:56:27.503Z,992.55
2019-01-08T10:57:27.488Z,992.59
2019-01-08T10:58:27.475Z,992.64
2019-01-08T10:59:27.466Z,992.56
2019-01-08T11:00:27.487Z,992.49
2019-01-08T11:01:27.448Z,992.53
2019-01-08T11:02:27.437Z,992.51
2019-01-08T11:03:27.423Z,992.52
2019-01-08T11:04:27.415Z,992.52
2019-01-08T11:05:27.413Z,992.46
2019-01-08T11:06:27.397Z,992.44
2019-01-08T11:07:27.429Z,992.44
2019-01-08T11:08:27.372Z,992.43
2019-01-08T11:09:27.357Z,992.37
2019-01-08T11:10:27.362Z,992.40
2019-01-08T11:11:27.334Z,992.29
2019-01-08T11:12:27.323Z,992.42
2019-01-08T11:13:27.312Z,992.43
2019-01-08T11:14:27.305Z,992.30
2019-01-08T11:15:27.361Z,992.20
2019-01-08T11:16:27.279Z,992.31
2019-01-08T11:17:27.271Z,992.31
2019-01-08T11:18:27.259Z,992.26
2019-01-08T11:19:27.260Z,992.27
2019-01-08T11:20:27.247Z,992.23
2019-01-08T11:21:27.225Z,992.13
2019-01-08T11:22:27.216Z,992.27
2019-01-08T11:23:27.203Z,992.23
2019-01-08T11:24:27.193Z,992.14
2019-01-08T11:25:27.198Z,992.18
2019-01-08T11:26:27.170Z,992.20
2019-01-08T11:27:27.159Z,992.19
2019-01-08T11:28:27.151Z,992.15
2019-01-08T11:29:27.138Z,992.04
2019-01-08T11:30:27.172Z,992.10
2019-01-08T11:31:27.116Z,992.06
2019-01-08T11:32:27.118Z,992.00
2019-01-08T11:33:27.098Z,992.03
2019-01-08T11:34:27.085Z,992.05
2019-01-08T11:35:27.093Z,992.00
2019-01-08T11:36:27.062Z,992.02
2019-01-08T11:37:27.050Z,992.06
2019-01-08T11:38:27.042Z,992.03
2019-01-08T11:39:27.032Z,991.97
2019-01-08T11:40:27.029Z,992.00
2019-01-08T11:41:27.010Z,991.94
2019-01-08T11:42:26.998Z,991.91
2019-01-08T11:43:26.992Z,991.96
2019-01-08T11:44:26.982Z,991.91
2019-01-08T11:45:26.980Z,991.87
2019-01-08T11:46:26.966Z,991.90
2019-01-08T11:47:26.941Z,991.79
2019-01-08T11:48:26.932Z,991.73
2019-01-08T11:49:26.924Z,991.77
2019-01-08T11:50:26.928Z,991.74
2019-01-08T11:51:26.908Z,991.63
2019-01-08T11:52:26.894Z,991.65
2019-01-08T11:53:26.875Z,991.56
2019-01-08T11:54:26.866Z,991.65
2019-01-08T11:55:26.866Z,991.59
2019-01-08T11:56:26.843Z,991.73
2019-01-08T11:57:26.832Z,991.82
2019-01-08T11:58:26.818Z,991.60
2019-01-08T11:59:26.810Z,991.87
2019-01-08T12:00:26.844Z,991.78
2019-01-08T12:01:26.787Z,991.81
2019-01-08T12:02:26.778Z,991.78
2019-01-08T12:03:26.769Z,991.79
2019-01-08T12:04:26.757Z,991.79
2019-01-08T12:05:26.746Z,991.73
2019-01-08T12:06:26.746Z,991.66
2019-01-08T12:07:31.104Z,991.68
2019-01-08T12:08:26.712Z,991.61
2019-01-08T12:09:26.707Z,991.55
2019-01-08T12:10:26.713Z,991.52
2019-01-08T12:11:26.691Z,991.57
2019-01-08T12:12:26.672Z,991.54
2019-01-08T12:13:26.655Z,991.56
2019-01-08T12:14:26.646Z,991.58
2019-01-08T12:15:26.636Z,991.57
2019-01-08T12:16:26.636Z,991.54
2019-01-08T12:17:26.621Z,991.60
2019-01-08T12:18:26.605Z,991.56
2019-01-08T12:19:26.604Z,991.60